createdAt,value
2019-02-09T00:02:07.030Z,3.90
2019-02-09T00:04:33.530Z,4.10
2019-02-09T00:07:00.023Z,4.20
2019-02-09T00:09:26.561Z,3.90
2019-02-09T00:11:53.010Z,3.60
2019-02-09T00:14:19.377Z,3.70
2019-02-09T00:16:45.828Z,4.00
2019-02-09T00:19:12.296Z,4.10
2019-02-09T00:21:38.749Z,3.90
2019-02-09T00:24:05.243Z,4.30
2019-02-09T00:26:31.902Z,4.10
2019-02-09T00:28:58.498Z,4.00
2019-02-09T00:31:24.946Z,4.30
2019-02-09T00:33:51.414Z,4.00
2019-02-09T00:36:18.065Z,4.10
2019-02-09T00:38:44.529Z,4.10
2019-02-09T00:41:11.193Z,3.80
2019-02-09T00:43:37.765Z,4.10
2019-02-09T00:46:07.252Z,4.20
2019-02-09T00:48:33.782Z,4.30
2019-02-09T00:51:00.669Z,4.20
2019-02-09T00:53:27.201Z,4.30
2019-02-09T00:55:53.993Z,4.00
2019-02-09T00:58:20.690Z,4.30
2019-02-09T01:00:47.171Z,4.10
2019-02-09T01:03:13.878Z,4.40
2019-02-09T01:05:42.666Z,4.20
2019-02-09T01:08:09.533Z,4.50
2019-02-09T01:10:36.035Z,3.90
2019-02-09T01:13:03.158Z,4.20
2019-02-09T01:15:29.652Z,4.40
2019-02-09T01:17:56.137Z,4.30
2019-02-09T01:20:25.182Z,4.40
2019-02-09T01:22:52.546Z,4.20
2019-02-09T01:25:19.106Z,4.50
2019-02-09T01:27:45.842Z,4.30
2019-02-09T01:30:20.179Z,4.30
2019-02-09T01:32:46.843Z,4.00
2019-02-09T01:35:14.274Z,4.30
2019-02-09T01:37:41.171Z,4.30
2019-02-09T01:40:11.205Z,4.50
2019-02-09T01:42:37.670Z,4.20
2019-02-09T01:45:07.574Z,4.20
2019-02-09T01:47:34.077Z,4.30
2019-02-09T01:50:00.687Z,4.30
2019-02-09T01:52:27.134Z,4.50
2019-02-09T01:54:53.695Z,4.50
2019-02-09T01:57:20.266Z,4.30
2019-02-09T01:59:46.768Z,4.50
2019-02-09T02:02:13.459Z,4.30
2019-02-09T02:04:40.128Z,4.50
2019-02-09T02:07:07.055Z,4.50
2019-02-09T02:09:33.642Z,4.50
2019-02-09T02:12:00.258Z,4.40
2019-02-09T02:14:26.796Z,4.50
2019-02-09T02:16:53.401Z,4.40
2019-02-09T02:19:19.871Z,4.40
2019-02-09T02:21:46.347Z,4.50
2019-02-09T02:24:12.815Z,4.50
2019-02-09T02:26:39.406Z,4.50
2019-02-09T02:29:05.914Z,4.40
2019-02-09T02:31:32.404Z,4.40
2019-02-09T02:33:58.870Z,4.40
2019-02-09T02:36:25.334Z,4.40
2019-02-09T02:38:51.974Z,4.40
2019-02-09T02:41:18.564Z,4.60
2019-02-09T02:43:45.035Z,3.90
2019-02-09T02:46:11.729Z,4.40
2019-02-09T02:48:38.280Z,4.40
2019-02-09T02:51:04.845Z,4.40
2019-02-09T02:53:31.613Z,4.50
2019-02-09T02:55:58.199Z,4.60
2019-02-09T02:58:24.605Z,4.30
2019-02-09T03:00:51.372Z,4.60
2019-02-09T03:03:17.850Z,4.50
2019-02-09T03:05:44.339Z,4.50
2019-02-09T03:08:11.088Z,4.60
2019-02-09T03:10:37.644Z,4.00
2019-02-09T03:13:04.253Z,4.60
2019-02-09T03:15:32.364Z,4.60
2019-02-09T03:17:58.878Z,4.40
2019-02-09T03:20:25.492Z,4.30
2019-02-09T03:22:52.112Z,4.50
2019-02-09T03:25:26.676Z,4.50
2019-02-09T03:27:53.299Z,4.50
2019-02-09T03:30:22.298Z,4.50
2019-02-09T03:32:48.877Z,4.60
2019-02-09T03:35:16.079Z,4.30
2019-02-09T03:37:42.661Z,4.50
2019-02-09T03:40:12.082Z,4.60
2019-02-09T03:42:38.570Z,4.70
2019-02-09T03:45:08.777Z,4.90
2019-02-09T03:47:35.366Z,4.70
2019-02-09T03:50:03.443Z,4.20
2019-02-09T03:52:29.891Z,4.80
2019-02-09T03:54:56.419Z,4.60
2019-02-09T03:57:24.720Z,4.70
2019-02-09T03:59:51.295Z,4.60
2019-02-09T04:02:17.811Z,4.10
2019-02-09T04:04:44.344Z,4.60
2019-02-09T04:07:10.854Z,4.60
2019-02-09T04:09:37.380Z,4.80
2019-02-09T04:12:04.004Z,4.50
2019-02-09T04:14:30.589Z,4.60
2019-02-09T04:16:57.083Z,4.60
2019-02-09T04:19:23.679Z,4.50
2019-02-09T04:21:50.312Z,4.50
2019-02-09T04:24:16.768Z,4.60
2019-02-09T04:26:43.359Z,4.50
2019-02-09T04:29:09.827Z,4.30
2019-02-09T04:31:36.445Z,4.60
2019-02-09T04:34:03.271Z,4.60
2019-02-09T04:36:29.788Z,4.50
2019-02-09T04:38:56.271Z,4.60
2019-02-09T04:41:22.954Z,4.70
2019-02-09T04:43:49.429Z,4.60
2019-02-09T04:46:15.946Z,4.70
2019-02-09T04:48:42.390Z,4.50
2019-02-09T04:51:08.855Z,4.60
2019-02-09T04:53:35.468Z,4.60
2019-02-09T04:56:01.923Z,4.60
2019-02-09T04:58:28.395Z,4.60
2019-02-09T05:00:55.004Z,4.60
2019-02-09T05:03:21.499Z,4.70
2019-02-09T05:05:48.057Z,4.70
2019-02-09T05:08:14.537Z,4.60
2019-02-09T05:10:41.004Z,4.60
2019-02-09T05:13:07.642Z,4.50
2019-02-09T05:15:34.214Z,4.70
2019-02-09T05:18:00.976Z,4.60
2019-02-09T05:20:27.527Z,4.50
2019-02-09T05:22:54.112Z,4.50
2019-02-09T05:25:20.850Z,4.50
2019-02-09T05:27:47.446Z,4.50
2019-02-09T05:30:25.421Z,4.50
2019-02-09T05:32:52.343Z,4.50
2019-02-09T05:35:18.826Z,4.10
2019-02-09T05:37:45.510Z,4.60
2019-02-09T05:40:15.710Z,4.60
2019-02-09T05:42:42.282Z,4.60
2019-02-09T05:45:14.771Z,4.70
2019-02-09T05:47:41.257Z,4.60
2019-02-09T05:50:11.025Z,4.50
2019-02-09T05:52:37.859Z,4.20
2019-02-09T05:55:06.433Z,4.50
2019-02-09T05:57:33.036Z,4.50
2019-02-09T05:59:59.506Z,4.40
2019-02-09T06:02:25.997Z,4.50
2019-02-09T06:04:52.484Z,4.50
2019-02-09T06:07:19.281Z,4.60
2019-02-09T06:09:46.059Z,4.50
2019-02-09T06:12:12.552Z,4.60
2019-02-09T06:14:41.183Z,4.10
2019-02-09T06:17:07.825Z,4.50
2019-02-09T06:19:34.301Z,4.60
2019-02-09T06:22:01.342Z,4.60
2019-02-09T06:24:27.792Z,4.60
2019-02-09T06:26:54.477Z,4.20
2019-02-09T06:29:21.307Z,4.50
2019-02-09T06:31:47.859Z,4.70
2019-02-09T06:34:14.322Z,4.50
2019-02-09T06:36:40.819Z,4.50
2019-02-09T06:39:07.331Z,4.60
2019-02-09T06:41:33.793Z,4.60
2019-02-09T06:44:00.274Z,4.60
2019-02-09T06:46:26.779Z,4.50
2019-02-09T06:48:53.138Z,4.60
2019-02-09T06:51:19.610Z,4.50
2019-02-09T06:53:46.098Z,4.30
2019-02-09T06:56:12.628Z,4.50
2019-02-09T06:58:39.210Z,4.50
2019-02-09T07:01:05.643Z,4.60
2019-02-09T07:03:32.099Z,4.60
2019-02-09T07:05:58.771Z,4.60
2019-02-09T07:08:25.242Z,4.20
2019-02-09T07:10:51.809Z,4.60
2019-02-09T07:13:18.396Z,4.60
2019-02-09T07:15:45.133Z,4.50
2019-02-09T07:18:11.754Z,4.60
2019-02-09T07:20:38.451Z,4.60
2019-02-09T07:23:05.345Z,4.60
2019-02-09T07:25:31.928Z,4.50
2019-02-09T07:27:58.482Z,4.50
2019-02-09T07:30:29.413Z,4.40
2019-02-09T07:32:56.787Z,4.50
2019-02-09T07:35:23.284Z,4.60
2019-02-09T07:37:49.755Z,4.60
2019-02-09T07:40:19.146Z,4.60
2019-02-09T07:42:45.612Z,4.60
2019-02-09T07:45:16.335Z,4.60
2019-02-09T07:47:42.838Z,4.80
2019-02-09T07:50:12.062Z,4.60
2019-02-09T07:52:38.542Z,4.60
2019-02-09T07:55:11.691Z,4.60
2019-02-09T07:57:38.230Z,4.50
2019-02-09T08:00:08.438Z,4.60
2019-02-09T08:02:35.166Z,4.50
2019-02-09T08:05:06.669Z,4.50
2019-02-09T08:07:33.236Z,4.60
2019-02-09T08:09:59.913Z,4.50
2019-02-09T08:12:26.480Z,4.20
2019-02-09T08:14:56.110Z,4.50
2019-02-09T08:17:25.099Z,4.50
2019-02-09T08:19:53.662Z,4.60
2019-02-09T08:22:20.222Z,4.60
2019-02-09T08:24:46.812Z,4.60
2019-02-09T08:27:13.514Z,4.70
2019-02-09T08:29:40.098Z,4.60
2019-02-09T08:32:12.621Z,4.60
2019-02-09T08:34:35.166Z,4.60
2019-02-09T08:37:01.673Z,4.80
2019-02-09T08:39:28.290Z,4.60
2019-02-09T08:41:54.765Z,4.90
2019-02-09T08:44:21.259Z,4.70
2019-02-09T08:46:47.839Z,4.80
2019-02-09T08:49:14.334Z,4.60
2019-02-09T08:51:40.833Z,4.70
2019-02-09T08:54:07.395Z,4.60
2019-02-09T08:56:33.834Z,4.70
2019-02-09T08:59:00.340Z,4.70
2019-02-09T09:01:26.811Z,4.70
2019-02-09T09:03:53.310Z,4.50
2019-02-09T09:06:19.788Z,4.60
2019-02-09T09:08:46.263Z,4.50
2019-02-09T09:11:12.850Z,4.60
2019-02-09T09:13:39.467Z,4.50
2019-02-09T09:16:07.248Z,4.60
2019-02-09T09:18:33.815Z,4.80
2019-02-09T09:21:03.191Z,4.60
2019-02-09T09:23:29.646Z,4.50
2019-02-09T09:25:56.317Z,4.60
2019-02-09T09:28:25.407Z,4.70
2019-02-09T09:30:51.995Z,4.60
2019-02-09T09:33:18.670Z,4.70
2019-02-09T09:35:45.229Z,4.40
2019-02-09T09:38:11.751Z,4.60
2019-02-09T09:40:42.442Z,4.40
2019-02-09T09:43:09.111Z,4.60
2019-02-09T09:45:37.382Z,4.60
2019-02-09T09:48:05.643Z,4.80
2019-02-09T09:50:32.272Z,4.50
2019-02-09T09:52:58.762Z,4.60
2019-02-09T09:55:26.318Z,4.60
2019-02-09T09:57:52.995Z,4.60
2019-02-09T10:00:21.986Z,4.50
2019-02-09T10:02:48.648Z,4.60
2019-02-09T10:05:15.422Z,4.60
2019-02-09T10:07:41.944Z,4.50
2019-02-09T10:10:14.315Z,4.50
2019-02-09T10:12:41.033Z,4.40
2019-02-09T10:15:10.377Z,4.50
2019-02-09T10:17:37.013Z,4.70
2019-02-09T10:20:07.042Z,4.60
2019-02-09T10:22:33.690Z,4.70
2019-02-09T10:25:00.342Z,4.60
2019-02-09T10:27:26.958Z,4.70
2019-02-09T10:29:53.446Z,4.60
2019-02-09T10:32:20.505Z,4.70
2019-02-09T10:34:46.970Z,4.70
2019-02-09T10:37:13.665Z,4.60
2019-02-09T10:39:40.176Z,4.70
2019-02-09T10:42:06.613Z,4.80
2019-02-09T10:44:33.093Z,4.60
2019-02-09T10:46:59.857Z,4.50
2019-02-09T10:49:26.405Z,4.50
2019-02-09T10:51:52.996Z,4.50
2019-02-09T10:54:19.583Z,4.30
2019-02-09T10:56:46.033Z,4.60
2019-02-09T10:59:12.645Z,4.50
2019-02-09T11:01:39.209Z,4.50
2019-02-09T11:04:06.338Z,4.50
2019-02-09T11:06:33.742Z,4.60
2019-02-09T11:09:00.325Z,4.60
2019-02-09T11:11:26.802Z,4.80
2019-02-09T11:13:53.286Z,4.10
2019-02-09T11:16:19.839Z,4.60
2019-02-09T11:18:46.339Z,4.10
2019-02-09T11:21:12.879Z,4.10
2019-02-09T11:23:39.590Z,4.60
2019-02-09T11:26:06.086Z,4.60
2019-02-09T11:28:32.567Z,4.60
2019-02-09T11:30:59.323Z,4.70
2019-02-09T11:33:25.789Z,4.50
2019-02-09T11:35:52.271Z,4.60
2019-02-09T11:38:18.798Z,4.40
2019-02-09T11:40:45.568Z,4.30
2019-02-09T11:43:12.049Z,4.60
2019-02-09T11:45:39.581Z,4.60
2019-02-09T11:48:06.069Z,4.70
2019-02-09T11:50:32.646Z,4.50
2019-02-09T11:52:59.298Z,4.50
2019-02-09T11:55:25.934Z,4.50
2019-02-09T11:57:52.396Z,4.60
2019-02-09T12:00:24.772Z,4.40
2019-02-09T12:02:51.321Z,4.40
2019-02-09T12:05:17.951Z,4.40
2019-02-09T12:07:44.399Z,4.00
2019-02-09T12:10:19.116Z,4.60
2019-02-09T12:12:45.883Z,4.40
2019-02-09T12:15:15.655Z,4.40
2019-02-09T12:17:42.770Z,4.40
2019-02-09T12:20:12.772Z,4.30
2019-02-09T12:22:39.238Z,4.60
2019-02-09T12:25:09.419Z,4.60
2019-02-09T12:27:36.102Z,4.40
2019-02-09T12:30:06.172Z,4.40
2019-02-09T12:32:32.753Z,4.50
2019-02-09T12:34:59.386Z,4.60
2019-02-09T12:37:25.835Z,4.40
2019-02-09T12:39:52.298Z,4.60
2019-02-09T12:42:18.800Z,4.40
2019-02-09T12:44:45.270Z,4.40
2019-02-09T12:47:11.784Z,4.50
2019-02-09T12:49:38.776Z,4.40
2019-02-09T12:52:05.355Z,4.30
2019-02-09T12:54:31.830Z,4.60
2019-02-09T12:56:58.501Z,4.40
2019-02-09T12:59:24.963Z,4.40
2019-02-09T13:01:51.576Z,4.40
2019-02-09T13:04:18.030Z,4.60
2019-02-09T13:06:44.612Z,4.60
2019-02-09T13:09:11.079Z,4.40
2019-02-09T13:11:37.760Z,4.40
2019-02-09T13:14:04.233Z,4.60
2019-02-09T13:16:30.694Z,4.70
2019-02-09T13:18:57.354Z,4.60
2019-02-09T13:21:23.970Z,4.50
2019-02-09T13:23:50.324Z,4.40
2019-02-09T13:26:16.807Z,4.70
2019-02-09T13:28:43.273Z,4.60
2019-02-09T13:31:09.750Z,4.40
2019-02-09T13:33:39.038Z,4.30
2019-02-09T13:36:04.851Z,4.30
2019-02-09T13:38:31.371Z,4.40
2019-02-09T13:40:57.902Z,3.90
2019-02-09T13:43:24.395Z,4.30
2019-02-09T13:45:50.870Z,4.50
2019-02-09T13:48:17.526Z,4.40
2019-02-09T13:50:43.976Z,4.50
2019-02-09T13:53:10.462Z,4.60
2019-02-09T13:55:37.074Z,4.50
2019-02-09T13:58:03.740Z,4.50
2019-02-09T14:00:31.056Z,4.50
2019-02-09T14:02:57.797Z,4.40
2019-02-09T14:05:24.258Z,4.30
2019-02-09T14:07:51.051Z,4.50
2019-02-09T14:10:22.126Z,4.30
2019-02-09T14:12:49.210Z,4.10
2019-02-09T14:15:17.890Z,4.60
2019-02-09T14:17:44.610Z,4.50
2019-02-09T14:20:13.106Z,4.40
2019-02-09T14:22:39.761Z,4.40
2019-02-09T14:25:08.227Z,4.30
2019-02-09T14:27:34.697Z,4.10
2019-02-09T14:30:01.189Z,4.30
2019-02-09T14:32:27.650Z,4.40
2019-02-09T14:34:54.129Z,4.60
2019-02-09T14:37:20.606Z,4.30
2019-02-09T14:39:47.100Z,4.30
2019-02-09T14:42:13.771Z,4.40
2019-02-09T14:44:40.300Z,4.40
2019-02-09T14:47:06.885Z,4.10
2019-02-09T14:49:33.314Z,4.30
2019-02-09T14:51:59.831Z,4.40
2019-02-09T14:54:26.362Z,4.20
2019-02-09T14:56:52.822Z,4.20
2019-02-09T14:59:19.311Z,4.30
2019-02-09T15:01:45.882Z,4.50
2019-02-09T15:04:12.329Z,4.20
2019-02-09T15:06:38.801Z,4.40
2019-02-09T15:09:06.250Z,4.30
2019-02-09T15:11:32.757Z,4.30
2019-02-09T15:13:59.286Z,4.20
2019-02-09T15:16:27.768Z,4.30
2019-02-09T15:18:54.170Z,4.20
2019-02-09T15:21:20.576Z,4.20
2019-02-09T15:23:47.062Z,4.00
2019-02-09T15:26:13.534Z,4.20
2019-02-09T15:28:40.056Z,4.30
2019-02-09T15:31:06.561Z,4.10
2019-02-09T15:33:33.070Z,4.20
2019-02-09T15:35:59.631Z,4.40
2019-02-09T15:38:26.106Z,4.20
2019-02-09T15:40:52.588Z,4.20
2019-02-09T15:43:19.235Z,4.10
2019-02-09T15:45:45.706Z,4.00
2019-02-09T15:48:12.201Z,4.10
2019-02-09T15:50:38.659Z,4.10
2019-02-09T15:53:05.609Z,4.20
2019-02-09T15:55:32.179Z,4.10
2019-02-09T15:57:58.671Z,4.00
2019-02-09T16:00:29.345Z,4.10
2019-02-09T16:02:59.631Z,4.30
2019-02-09T16:05:26.376Z,4.10
2019-02-09T16:07:52.850Z,4.10
2019-02-09T16:10:20.486Z,4.30
2019-02-09T16:12:47.433Z,4.20
2019-02-09T16:15:16.461Z,4.10
2019-02-09T16:17:43.142Z,4.00
2019-02-09T16:20:15.270Z,4.20
2019-02-09T16:22:41.909Z,5.30
2019-02-09T16:25:09.178Z,6.60
2019-02-09T16:27:35.544Z,7.60
2019-02-09T16:30:05.603Z,8.50
2019-02-09T16:32:32.058Z,9.20
2019-02-09T16:34:58.570Z,9.50
2019-02-09T16:37:25.133Z,8.10
2019-02-09T16:39:51.630Z,6.70
2019-02-09T16:42:18.082Z,5.90
2019-02-09T16:44:44.661Z,5.40
2019-02-09T16:47:11.519Z,4.90
2019-02-09T16:49:37.969Z,4.70
2019-02-09T16:52:04.530Z,4.60
2019-02-09T16:54:31.020Z,4.50
2019-02-09T16:56:57.491Z,4.50
2019-02-09T16:59:24.090Z,4.30
2019-02-09T17:01:50.681Z,4.00
2019-02-09T17:04:17.170Z,4.30
2019-02-09T17:06:43.651Z,4.20
2019-02-09T17:09:10.285Z,4.20
2019-02-09T17:11:36.771Z,4.20
2019-02-09T17:14:06.379Z,4.30
2019-02-09T17:16:32.807Z,4.10
2019-02-09T17:18:59.406Z,4.10
2019-02-09T17:21:26.782Z,4.20
2019-02-09T17:23:53.279Z,4.20
2019-02-09T17:26:22.430Z,4.00
2019-02-09T17:28:51.834Z,4.20
2019-02-09T17:31:18.334Z,4.30
2019-02-09T17:33:46.714Z,4.20
2019-02-09T17:36:13.379Z,4.20
2019-02-09T17:38:39.873Z,4.10
2019-02-09T17:41:06.320Z,4.00
2019-02-09T17:43:33.107Z,4.10
2019-02-09T17:46:03.246Z,3.80
2019-02-09T17:48:29.919Z,4.30
2019-02-09T17:50:56.578Z,4.20
2019-02-09T17:53:23.025Z,4.20
2019-02-09T17:55:49.686Z,4.30
2019-02-09T17:58:19.192Z,4.40
2019-02-09T18:00:50.314Z,4.20
2019-02-09T18:03:19.870Z,4.40
2019-02-09T18:05:46.435Z,4.30
2019-02-09T18:08:12.897Z,4.30
2019-02-09T18:10:39.578Z,4.30
2019-02-09T18:13:06.071Z,4.40
2019-02-09T18:15:32.706Z,4.30
2019-02-09T18:17:59.116Z,4.20
2019-02-09T18:20:25.514Z,4.30
2019-02-09T18:22:51.979Z,4.30
2019-02-09T18:25:21.002Z,4.40
2019-02-09T18:27:47.471Z,4.40
2019-02-09T18:30:24.620Z,4.30
2019-02-09T18:32:51.205Z,4.30
2019-02-09T18:35:17.867Z,4.20
2019-02-09T18:37:44.426Z,4.30
2019-02-09T18:40:14.115Z,4.40
2019-02-09T18:42:40.698Z,4.40
2019-02-09T18:45:10.823Z,4.50
2019-02-09T18:47:37.275Z,4.60
2019-02-09T18:50:07.484Z,4.40
2019-02-09T18:52:33.989Z,4.50
2019-02-09T18:55:00.560Z,4.40
2019-02-09T18:57:27.029Z,4.30
2019-02-09T18:59:53.520Z,4.40
2019-02-09T19:02:20.026Z,4.30
2019-02-09T19:04:46.597Z,4.30
2019-02-09T19:07:13.328Z,4.40
2019-02-09T19:09:39.909Z,4.40
2019-02-09T19:12:06.498Z,4.40
2019-02-09T19:14:33.195Z,4.40
2019-02-09T19:16:59.606Z,4.50
2019-02-09T19:19:26.075Z,4.10
2019-02-09T19:21:52.544Z,4.30
2019-02-09T19:24:19.024Z,4.20
2019-02-09T19:26:45.577Z,4.30
2019-02-09T19:29:12.179Z,4.30
2019-02-09T19:31:38.634Z,4.30
2019-02-09T19:34:05.152Z,4.30
2019-02-09T19:36:31.611Z,4.40
2019-02-09T19:38:58.090Z,4.40
2019-02-09T19:41:24.551Z,4.50
2019-02-09T19:43:51.347Z,4.30
2019-02-09T19:46:17.829Z,4.40
2019-02-09T19:48:44.291Z,4.30
2019-02-09T19:51:11.093Z,4.00
2019-02-09T19:53:37.573Z,4.70
2019-02-09T19:56:04.061Z,4.50
2019-02-09T19:58:30.753Z,4.30
2019-02-09T20:00:57.510Z,3.80
2019-02-09T20:03:25.777Z,4.30
2019-02-09T20:05:52.552Z,4.50
2019-02-09T20:08:19.011Z,4.30
2019-02-09T20:10:45.490Z,4.20
2019-02-09T20:13:12.912Z,4.40
2019-02-09T20:15:39.429Z,4.50
2019-02-09T20:18:06.870Z,4.40
2019-02-09T20:20:33.327Z,4.40
2019-02-09T20:22:59.791Z,4.40
2019-02-09T20:25:27.158Z,4.30
2019-02-09T20:27:53.906Z,4.30
2019-02-09T20:30:23.067Z,4.30
2019-02-09T20:32:50.115Z,4.20
2019-02-09T20:35:18.405Z,4.20
2019-02-09T20:37:45.277Z,4.20
2019-02-09T20:40:21.036Z,4.20
2019-02-09T20:42:47.610Z,4.30
2019-02-09T20:45:14.965Z,4.30
2019-02-09T20:47:47.926Z,4.10
2019-02-09T20:50:14.335Z,4.20
2019-02-09T20:52:40.806Z,4.00
2019-02-09T20:55:09.074Z,4.10
2019-02-09T20:57:35.494Z,3.60
2019-02-09T21:00:03.771Z,3.50
2019-02-09T21:02:30.430Z,4.00
2019-02-09T21:04:56.898Z,4.00
2019-02-09T21:07:24.676Z,4.20
2019-02-09T21:09:51.271Z,4.10
2019-02-09T21:12:17.654Z,4.00
2019-02-09T21:14:44.101Z,4.20
2019-02-09T21:17:10.657Z,4.00
2019-02-09T21:19:37.113Z,3.70
2019-02-09T21:22:03.938Z,4.00
2019-02-09T21:24:32.422Z,4.00
2019-02-09T21:26:58.946Z,4.10
2019-02-09T21:29:25.418Z,4.20
2019-02-09T21:31:52.056Z,4.40
2019-02-09T21:34:18.506Z,4.20
2019-02-09T21:36:45.047Z,4.20
2019-02-09T21:39:11.500Z,3.80
2019-02-09T21:41:37.949Z,3.80
2019-02-09T21:44:04.413Z,4.50
2019-02-09T21:46:31.131Z,4.20
2019-02-09T21:48:57.816Z,4.30
2019-02-09T21:51:24.435Z,4.40
2019-02-09T21:53:51.654Z,4.50
2019-02-09T21:56:18.219Z,4.30
2019-02-09T21:58:44.751Z,4.60
2019-02-09T22:01:11.387Z,4.40
2019-02-09T22:03:37.834Z,4.40
2019-02-09T22:06:04.525Z,4.50
2019-02-09T22:08:31.615Z,4.50
2019-02-09T22:10:57.975Z,4.70
2019-02-09T22:13:24.489Z,4.50
2019-02-09T22:15:51.121Z,4.60
2019-02-09T22:18:17.643Z,4.60
2019-02-09T22:20:52.192Z,4.70
2019-02-09T22:23:12.496Z,4.90
2019-02-09T22:25:38.990Z,4.70
2019-02-09T22:28:05.658Z,4.60
2019-02-09T22:30:34.948Z,4.20
2019-02-09T22:33:01.653Z,4.60
2019-02-09T22:35:28.503Z,4.50
2019-02-09T22:37:55.906Z,4.50
2019-02-09T22:40:39.605Z,4.60
2019-02-09T22:43:07.157Z,4.60
2019-02-09T22:45:33.653Z,4.60
2019-02-09T22:48:00.124Z,4.50
2019-02-09T22:50:37.656Z,4.70
2019-02-09T22:53:04.479Z,4.60
2019-02-09T22:55:30.985Z,4.30
2019-02-09T22:57:57.442Z,4.50
2019-02-09T23:00:43.849Z,4.70
2019-02-09T23:03:10.519Z,4.70
2019-02-09T23:06:07.955Z,4.50
2019-02-09T23:08:29.678Z,4.40
2019-02-09T23:10:56.398Z,4.40
2019-02-09T23:13:22.883Z,4.40
2019-02-09T23:15:49.639Z,4.70
2019-02-09T23:18:16.015Z,4.40
2019-02-09T23:20:42.581Z,4.40
2019-02-09T23:23:09.238Z,4.30
2019-02-09T23:25:35.746Z,4.40
2019-02-09T23:28:02.223Z,4.40
2019-02-09T23:30:29.118Z,4.40
2019-02-09T23:32:55.682Z,4.10
2019-02-09T23:35:22.140Z,4.10
2019-02-09T23:37:49.769Z,4.50
2019-02-09T23:40:16.126Z,4.30
2019-02-09T23:42:42.589Z,4.30
2019-02-09T23:45:09.169Z,4.30
2019-02-09T23:47:35.714Z,4.30
2019-02-09T23:50:03.188Z,4.40
2019-02-09T23:52:29.905Z,4.30
2019-02-09T23:54:56.325Z,4.40
2019-02-09T23:57:22.794Z,4.30
2019-02-09T23:59:49.247Z,4.50
